Berta — V2BQ6 — position and weather

sailwx.info

Track history (hours):
 
Tides and Currents Weather Stations Pressure Air Temp Water Temp Dewpoint Dewpoint Depression Visibility Wind Speed Wind Dir Waves Ship Positions

Berta

Last reported at 2016-Aug-25 15:19 UTC. Time now 2016-Aug-26 11:55 UTC.
Position N 63°22' E 009°12'.

Length 118 m; draft 6.7 m.

Type: Cargo ship. MMSI: 304586000.

Date/timePositionNaut miles runAvg speedWind from/ knotsBaromVisibWave heightAir tempDewpointWater temp
2016-Aug-25 15:19N 63°22' E 009°12'7 0.6
2016-Aug-25 04:20N 63°28' E 009°05'30511.6
2016-Aug-24 02:06N 58°55' E 004°24'913.7
2016-Aug-24 01:27N 58°48' E 004°36'1314.0
2016-Aug-24 00:33N 58°39' E 004°53'1414.1
2016-Aug-23 23:34N 58°29' E 005°11'1413.9
2016-Aug-23 22:33N 58°18' E 005°28'1813.6
2016-Aug-23 21:12N 58°00' E 005°35'1014.4
2016-Aug-23 20:29N 57°50' E 005°40'1714.0
2016-Aug-23 19:16N 57°33' E 005°45'1113.8
2016-Aug-23 18:29N 57°23' E 005°49'117 9.8
2016-Aug-23 06:33N 55°28' E 006°37'1414.4
2016-Aug-23 05:33N 55°14' E 006°43'1414.3
2016-Aug-23 04:33N 55°00' E 006°49'1414.2
2016-Aug-23 03:33N 54°48' E 007°00'1414.1
2016-Aug-23 02:33N 54°35' E 007°12'1413.7
2016-Aug-23 01:33N 54°24' E 007°24'1313.1
2016-Aug-23 00:33N 54°13' E 007°36'1312.6
2016-Aug-22 23:33N 54°05' E 007°54'1211.8
2016-Aug-22 22:33N 54°01' E 008°13'1313.4
2016-Aug-22 21:33N 53°58' E 008°35'1514.8
2016-Aug-22 20:33N 53°51' E 008°57'1514.8
2016-Aug-22 19:34N 53°49' E 009°22'1514.6
2016-Aug-22 18:34N 53°37' E 009°34'1110.6
2016-Aug-22 17:33N 53°33' E 009°51'4 3.9
2016-Aug-22 16:33N 53°31' E 009°56'0 0.0
2016-Aug-22 15:34N 53°31' E 009°56'0 0.0
2016-Aug-22 14:34N 53°31' E 009°56'0 0.0
2016-Aug-22 13:34N 53°31' E 009°56'0 0.0
2016-Aug-22 12:34N 53°31' E 009°56'0 0.0
2016-Aug-22 11:34N 53°31' E 009°56'0 0.0
2016-Aug-22 10:34N 53°31' E 009°56'0 0.0
2016-Aug-22 09:34N 53°31' E 009°56'2 1.9
2016-Aug-22 08:34N 53°32' E 009°55'0 0.0
2016-Aug-22 07:34N 53°32' E 009°55'0 0.0
2016-Aug-22 06:33N 53°32' E 009°55'0 0.0
2016-Aug-22 05:34N 53°32' E 009°55'2 1.7
2016-Aug-22 04:34N 53°33' E 009°52'1211.5
2016-Aug-22 03:33N 53°37' E 009°34'1413.8
2016-Aug-22 02:33N 53°49' E 009°22'1413.5
2016-Aug-22 01:33N 53°51' E 008°60'1313.1
2016-Aug-22 00:33N 53°56' E 008°39'1515.3
2016-Aug-21 23:33N 53°60' E 008°14'1414.0
2016-Aug-21 22:34N 54°04' E 007°51'1414.2
2016-Aug-21 21:33N 54°12' E 007°31'1413.7
2016-Aug-21 20:33N 54°24' E 007°21'1313.3
2016-Aug-21 19:33N 54°36' E 007°11'1312.8
2016-Aug-21 18:33N 54°47' E 007°01'1312.5
2016-Aug-21 17:33N 54°59' E 006°51'1212.3
2016-Aug-21 16:33N 55°10' E 006°45'1212.2
2016-Aug-21 15:33N 55°22' E 006°40'193 8.8
2016-Aug-20 17:31N 58°27' E 004°59'1010.7
2016-Aug-20 16:33N 58°35' E 004°46'1010.1
2016-Aug-20 15:31N 58°43' E 004°33'314 6.6
2016-Aug-18 16:11N 63°28' E 009°05'1 0.1
2016-Aug-18 05:27N 63°27' E 009°07'27911.7
2016-Aug-17 05:32N 59°26' E 004°14'1714.8
2016-Aug-17 04:24N 59°09' E 004°13'1113.3
2016-Aug-17 03:33N 58°58' E 004°19'1414.1
2016-Aug-17 02:33N 58°48' E 004°37'1414.2
2016-Aug-17 01:33N 58°37' E 004°55'1413.7
2016-Aug-17 00:33N 58°27' E 005°13'1414.1
2016-Aug-16 23:33N 58°16' E 005°29'1313.2
2016-Aug-16 22:34N 58°03' E 005°37'1413.6
2016-Aug-16 21:33N 57°50' E 005°42'1413.7
2016-Aug-16 20:33N 57°36' E 005°47'1413.9
2016-Aug-16 19:33N 57°22' E 005°51'2814.0
2016-Aug-16 17:33N 56°55' E 006°02'1613.8
2016-Aug-16 16:23N 56°39' E 006°07'1113.8
2016-Aug-16 15:33N 56°28' E 006°12'1413.9
2016-Aug-16 14:33N 56°14' E 006°18'1413.9
2016-Aug-16 13:33N 56°01' E 006°24'1413.9
2016-Aug-16 12:33N 55°48' E 006°30'1813.8
2016-Aug-16 11:17N 55°30' E 006°37'1013.7
2016-Aug-16 10:33N 55°21' E 006°40'1313.5
2016-Aug-16 09:33N 55°08' E 006°46'1313.3
2016-Aug-16 08:33N 54°55' E 006°54'1313.0
2016-Aug-16 07:33N 54°44' E 007°05'3912.9
2016-Aug-16 04:33N 54°11' E 007°39'1413.9
2016-Aug-16 03:33N 54°04' E 007°60'1515.3
2016-Aug-16 02:33N 53°59' E 008°25'1615.6
2016-Aug-16 01:33N 53°51' E 008°47'1514.6
2016-Aug-16 00:33N 53°53' E 009°11'1111.3
2016-Aug-15 23:33N 53°45' E 009°25'1110.7
2016-Aug-15 22:33N 53°36' E 009°35'8 8.3
2016-Aug-15 21:33N 53°33' E 009°48'4 3.9
2016-Aug-15 20:32N 53°32' E 009°55'0 0.0
2016-Aug-15 19:32N 53°32' E 009°55'0 0.0
2016-Aug-15 18:32N 53°32' E 009°55'0 0.0
2016-Aug-15 17:34N 53°32' E 009°55'0 0.0
2016-Aug-15 16:33N 53°32' E 009°55'0 0.0
2016-Aug-15 15:34N 53°32' E 009°55'  
Track history (hours):
 
Tides and Currents Weather Stations Pressure Air Temp Water Temp Dewpoint Dewpoint Depression Visibility Wind Speed Wind Dir Waves Ship Positions

Berta

Last reported at 2016-Aug-25 15:19 UTC. Time now 2016-Aug-26 11:55 UTC.
Position N 63°22' E 009°12'.

Length 118 m; draft 6.7 m.

Type: Cargo ship. MMSI: 304586000.

Date/timePositionNaut miles runAvg speedWind from/ knotsBaromVisibWave heightAir tempDewpointWater temp
2016-Aug-25 15:19N 63°22' E 009°12'7 0.6
2016-Aug-25 04:20N 63°28' E 009°05'30511.6
2016-Aug-24 02:06N 58°55' E 004°24'913.7
2016-Aug-24 01:27N 58°48' E 004°36'1314.0
2016-Aug-24 00:33N 58°39' E 004°53'1414.1
2016-Aug-23 23:34N 58°29' E 005°11'1413.9
2016-Aug-23 22:33N 58°18' E 005°28'1813.6
2016-Aug-23 21:12N 58°00' E 005°35'1014.4
2016-Aug-23 20:29N 57°50' E 005°40'1714.0
2016-Aug-23 19:16N 57°33' E 005°45'1113.8
2016-Aug-23 18:29N 57°23' E 005°49'117 9.8
2016-Aug-23 06:33N 55°28' E 006°37'1414.4
2016-Aug-23 05:33N 55°14' E 006°43'1414.3
2016-Aug-23 04:33N 55°00' E 006°49'1414.2
2016-Aug-23 03:33N 54°48' E 007°00'1414.1
2016-Aug-23 02:33N 54°35' E 007°12'1413.7
2016-Aug-23 01:33N 54°24' E 007°24'1313.1
2016-Aug-23 00:33N 54°13' E 007°36'1312.6
2016-Aug-22 23:33N 54°05' E 007°54'1211.8
2016-Aug-22 22:33N 54°01' E 008°13'1313.4
2016-Aug-22 21:33N 53°58' E 008°35'1514.8
2016-Aug-22 20:33N 53°51' E 008°57'1514.8
2016-Aug-22 19:34N 53°49' E 009°22'1514.6
2016-Aug-22 18:34N 53°37' E 009°34'1110.6
2016-Aug-22 17:33N 53°33' E 009°51'4 3.9
2016-Aug-22 16:33N 53°31' E 009°56'0 0.0
2016-Aug-22 15:34N 53°31' E 009°56'0 0.0
2016-Aug-22 14:34N 53°31' E 009°56'0 0.0
2016-Aug-22 13:34N 53°31' E 009°56'0 0.0
2016-Aug-22 12:34N 53°31' E 009°56'0 0.0
2016-Aug-22 11:34N 53°31' E 009°56'0 0.0
2016-Aug-22 10:34N 53°31' E 009°56'0 0.0
2016-Aug-22 09:34N 53°31' E 009°56'2 1.9
2016-Aug-22 08:34N 53°32' E 009°55'0 0.0
2016-Aug-22 07:34N 53°32' E 009°55'0 0.0
2016-Aug-22 06:33N 53°32' E 009°55'0 0.0
2016-Aug-22 05:34N 53°32' E 009°55'2 1.7
2016-Aug-22 04:34N 53°33' E 009°52'1211.5
2016-Aug-22 03:33N 53°37' E 009°34'1413.8
2016-Aug-22 02:33N 53°49' E 009°22'1413.5
2016-Aug-22 01:33N 53°51' E 008°60'1313.1
2016-Aug-22 00:33N 53°56' E 008°39'1515.3
2016-Aug-21 23:33N 53°60' E 008°14'1414.0
2016-Aug-21 22:34N 54°04' E 007°51'1414.2
2016-Aug-21 21:33N 54°12' E 007°31'1413.7
2016-Aug-21 20:33N 54°24' E 007°21'1313.3
2016-Aug-21 19:33N 54°36' E 007°11'1312.8
2016-Aug-21 18:33N 54°47' E 007°01'1312.5
2016-Aug-21 17:33N 54°59' E 006°51'1212.3
2016-Aug-21 16:33N 55°10' E 006°45'1212.2
2016-Aug-21 15:33N 55°22' E 006°40'193 8.8
2016-Aug-20 17:31N 58°27' E 004°59'1010.7
2016-Aug-20 16:33N 58°35' E 004°46'1010.1
2016-Aug-20 15:31N 58°43' E 004°33'314 6.6
2016-Aug-18 16:11N 63°28' E 009°05'1 0.1
2016-Aug-18 05:27N 63°27' E 009°07'27911.7
2016-Aug-17 05:32N 59°26' E 004°14'1714.8
2016-Aug-17 04:24N 59°09' E 004°13'1113.3
2016-Aug-17 03:33N 58°58' E 004°19'1414.1
2016-Aug-17 02:33N 58°48' E 004°37'1414.2
2016-Aug-17 01:33N 58°37' E 004°55'1413.7
2016-Aug-17 00:33N 58°27' E 005°13'1414.1
2016-Aug-16 23:33N 58°16' E 005°29'1313.2
2016-Aug-16 22:34N 58°03' E 005°37'1413.6
2016-Aug-16 21:33N 57°50' E 005°42'1413.7
2016-Aug-16 20:33N 57°36' E 005°47'1413.9
2016-Aug-16 19:33N 57°22' E 005°51'2814.0
2016-Aug-16 17:33N 56°55' E 006°02'1613.8
2016-Aug-16 16:23N 56°39' E 006°07'1113.8
2016-Aug-16 15:33N 56°28' E 006°12'1413.9
2016-Aug-16 14:33N 56°14' E 006°18'1413.9
2016-Aug-16 13:33N 56°01' E 006°24'1413.9
2016-Aug-16 12:33N 55°48' E 006°30'1813.8
2016-Aug-16 11:17N 55°30' E 006°37'1013.7
2016-Aug-16 10:33N 55°21' E 006°40'1313.5
2016-Aug-16 09:33N 55°08' E 006°46'1313.3
2016-Aug-16 08:33N 54°55' E 006°54'1313.0
2016-Aug-16 07:33N 54°44' E 007°05'3912.9
2016-Aug-16 04:33N 54°11' E 007°39'1413.9
2016-Aug-16 03:33N 54°04' E 007°60'1515.3
2016-Aug-16 02:33N 53°59' E 008°25'1615.6
2016-Aug-16 01:33N 53°51' E 008°47'1514.6
2016-Aug-16 00:33N 53°53' E 009°11'1111.3
2016-Aug-15 23:33N 53°45' E 009°25'1110.7
2016-Aug-15 22:33N 53°36' E 009°35'8 8.3
2016-Aug-15 21:33N 53°33' E 009°48'4 3.9
2016-Aug-15 20:32N 53°32' E 009°55'0 0.0
2016-Aug-15 19:32N 53°32' E 009°55'0 0.0
2016-Aug-15 18:32N 53°32' E 009°55'0 0.0
2016-Aug-15 17:34N 53°32' E 009°55'0 0.0
2016-Aug-15 16:33N 53°32' E 009°55'0 0.0
2016-Aug-15 15:34N 53°32' E 009°55'  

Dump ship's entire track history